Corona — V7EL5 — position and weather

sailwx.info

Track history (hours):
 
Tides and Currents Weather Stations Pressure Air Temp Water Temp Dewpoint Dewpoint Depression Visibility Wind Speed Wind Dir Waves Ship Positions

Corona

Last reported at 2018-Apr-18 15:18 UTC. Time now 2018-May-20 21:53 UTC.
Position S 32°54' E 029°12'.
Warning: this ship's position is 32 days out of date.

Length 187 m; draft 6.3 m.

Type: Cargo ship. MMSI: 538005490.

Date/timePositionNaut miles runAvg speedWind from/ knotsBaromVisibWave heightAir tempDewpointWater temp
2018-Apr-18 15:18S 32°54' E 029°12'713.4
2018-Apr-18 14:48S 32°50' E 029°18'413.4
2018-Apr-18 14:30S 32°47' E 029°21'713.5
2018-Apr-18 13:58S 32°42' E 029°28'2413.0
2018-Apr-18 12:09S 32°23' E 029°44'713.4
2018-Apr-18 11:36S 32°16' E 029°48'413.3
2018-Apr-18 11:20S 32°13' E 029°50'9113.7
2018-Apr-18 04:40S 30°52' E 030°40'414.3
2018-Apr-18 04:22S 30°48' E 030°43'614.3
2018-Apr-18 03:59S 30°44' E 030°46'714.3
2018-Apr-18 03:28S 30°37' E 030°50'614.1
2018-Apr-18 03:00S 30°31' E 030°53'714.0
2018-Apr-18 02:30S 30°25' E 030°57'713.5
2018-Apr-18 02:00S 30°19' E 031°01'612.9
2018-Apr-18 01:30S 30°13' E 031°04'612.3
2018-Apr-18 01:00S 30°08' E 031°07'611.6
2018-Apr-18 00:30S 30°02' E 031°09'611.5
2018-Apr-18 00:00S 29°56' E 031°09'612.0
2018-Apr-17 23:29S 29°51' E 031°06'3 6.8
2018-Apr-17 23:00S 29°53' E 031°03'1 1.3
2018-Apr-17 22:27S 29°52' E 031°02'0 0.0
2018-Apr-17 22:00S 29°52' E 031°02'0 0.0
2018-Apr-17 21:30S 29°52' E 031°02'0 0.0
2018-Apr-17 20:57S 29°52' E 031°02'0 0.0
2018-Apr-17 20:27S 29°52' E 031°02'0 0.0
2018-Apr-17 19:54S 29°52' E 031°02'0 0.0
2018-Apr-17 19:30S 29°52' E 031°02'0 0.0
2018-Apr-17 19:00S 29°52' E 031°02'0 0.0
2018-Apr-17 18:27S 29°52' E 031°02'0 0.0
2018-Apr-17 18:00S 29°52' E 031°02'0 0.0
2018-Apr-17 17:30S 29°52' E 031°02'0 0.0
2018-Apr-17 17:00S 29°52' E 031°02'0 0.0
2018-Apr-17 16:27S 29°52' E 031°02'0 0.0
2018-Apr-17 16:00S 29°52' E 031°02'0 0.0
2018-Apr-17 15:30S 29°52' E 031°02'0 0.0
2018-Apr-17 14:57S 29°52' E 031°02'0 0.0
2018-Apr-17 14:30S 29°52' E 031°02'0 0.0
2018-Apr-17 14:00S 29°52' E 031°02'0 0.0
2018-Apr-17 13:30S 29°52' E 031°02'0 0.0
2018-Apr-17 13:00S 29°52' E 031°02'0 0.0
2018-Apr-17 12:30S 29°52' E 031°02'0 0.0
2018-Apr-17 12:00S 29°52' E 031°02'0 0.0
2018-Apr-17 11:30S 29°52' E 031°02'0 0.0
2018-Apr-17 11:00S 29°52' E 031°02'0 0.0
2018-Apr-17 10:30S 29°52' E 031°02'0 0.0
2018-Apr-17 10:00S 29°52' E 031°02'0 0.0
2018-Apr-17 09:30S 29°52' E 031°02'0 0.0
2018-Apr-17 09:00S 29°52' E 031°02'0 0.7
2018-Apr-17 08:30S 29°52' E 031°02'3 5.2
2018-Apr-17 08:00S 29°51' E 031°05'2 3.8
2018-Apr-17 07:30S 29°49' E 031°06'1 1.9
2018-Apr-17 07:00S 29°49' E 031°07'4 7.4
2018-Apr-17 06:30S 29°49' E 031°11'1 2.0
2018-Apr-17 06:00S 29°48' E 031°10'2 3.4
2018-Apr-17 05:30S 29°48' E 031°08'0 0.8
2018-Apr-17 05:00S 29°48' E 031°09'1 1.7
2018-Apr-17 04:30S 29°48' E 031°10'2 3.9
2018-Apr-17 04:00S 29°48' E 031°12'611.4
2018-Apr-17 03:30S 29°47' E 031°18'612.3
2018-Apr-17 03:00S 29°46' E 031°25'612.8
2018-Apr-17 02:30S 29°44' E 031°32'713.7
2018-Apr-17 02:00S 29°42' E 031°40'714.1
2018-Apr-17 01:31S 29°41' E 031°48'714.3
2018-Apr-17 01:00S 29°39' E 031°56'  
Track history (hours):
 
Tides and Currents Weather Stations Pressure Air Temp Water Temp Dewpoint Dewpoint Depression Visibility Wind Speed Wind Dir Waves Ship Positions

Corona

Last reported at 2018-Apr-18 15:18 UTC. Time now 2018-May-20 21:53 UTC.
Position S 32°54' E 029°12'.
Warning: this ship's position is 32 days out of date.

Length 187 m; draft 6.3 m.

Type: Cargo ship. MMSI: 538005490.

Date/timePositionNaut miles runAvg speedWind from/ knotsBaromVisibWave heightAir tempDewpointWater temp
2018-Apr-18 15:18S 32°54' E 029°12'713.4
2018-Apr-18 14:48S 32°50' E 029°18'413.4
2018-Apr-18 14:30S 32°47' E 029°21'713.5
2018-Apr-18 13:58S 32°42' E 029°28'2413.0
2018-Apr-18 12:09S 32°23' E 029°44'713.4
2018-Apr-18 11:36S 32°16' E 029°48'413.3
2018-Apr-18 11:20S 32°13' E 029°50'9113.7
2018-Apr-18 04:40S 30°52' E 030°40'414.3
2018-Apr-18 04:22S 30°48' E 030°43'614.3
2018-Apr-18 03:59S 30°44' E 030°46'714.3
2018-Apr-18 03:28S 30°37' E 030°50'614.1
2018-Apr-18 03:00S 30°31' E 030°53'714.0
2018-Apr-18 02:30S 30°25' E 030°57'713.5
2018-Apr-18 02:00S 30°19' E 031°01'612.9
2018-Apr-18 01:30S 30°13' E 031°04'612.3
2018-Apr-18 01:00S 30°08' E 031°07'611.6
2018-Apr-18 00:30S 30°02' E 031°09'611.5
2018-Apr-18 00:00S 29°56' E 031°09'612.0
2018-Apr-17 23:29S 29°51' E 031°06'3 6.8
2018-Apr-17 23:00S 29°53' E 031°03'1 1.3
2018-Apr-17 22:27S 29°52' E 031°02'0 0.0
2018-Apr-17 22:00S 29°52' E 031°02'0 0.0
2018-Apr-17 21:30S 29°52' E 031°02'0 0.0
2018-Apr-17 20:57S 29°52' E 031°02'0 0.0
2018-Apr-17 20:27S 29°52' E 031°02'0 0.0
2018-Apr-17 19:54S 29°52' E 031°02'0 0.0
2018-Apr-17 19:30S 29°52' E 031°02'0 0.0
2018-Apr-17 19:00S 29°52' E 031°02'0 0.0
2018-Apr-17 18:27S 29°52' E 031°02'0 0.0
2018-Apr-17 18:00S 29°52' E 031°02'0 0.0
2018-Apr-17 17:30S 29°52' E 031°02'0 0.0
2018-Apr-17 17:00S 29°52' E 031°02'0 0.0
2018-Apr-17 16:27S 29°52' E 031°02'0 0.0
2018-Apr-17 16:00S 29°52' E 031°02'0 0.0
2018-Apr-17 15:30S 29°52' E 031°02'0 0.0
2018-Apr-17 14:57S 29°52' E 031°02'0 0.0
2018-Apr-17 14:30S 29°52' E 031°02'0 0.0
2018-Apr-17 14:00S 29°52' E 031°02'0 0.0
2018-Apr-17 13:30S 29°52' E 031°02'0 0.0
2018-Apr-17 13:00S 29°52' E 031°02'0 0.0
2018-Apr-17 12:30S 29°52' E 031°02'0 0.0
2018-Apr-17 12:00S 29°52' E 031°02'0 0.0
2018-Apr-17 11:30S 29°52' E 031°02'0 0.0
2018-Apr-17 11:00S 29°52' E 031°02'0 0.0
2018-Apr-17 10:30S 29°52' E 031°02'0 0.0
2018-Apr-17 10:00S 29°52' E 031°02'0 0.0
2018-Apr-17 09:30S 29°52' E 031°02'0 0.0
2018-Apr-17 09:00S 29°52' E 031°02'0 0.7
2018-Apr-17 08:30S 29°52' E 031°02'3 5.2
2018-Apr-17 08:00S 29°51' E 031°05'2 3.8
2018-Apr-17 07:30S 29°49' E 031°06'1 1.9
2018-Apr-17 07:00S 29°49' E 031°07'4 7.4
2018-Apr-17 06:30S 29°49' E 031°11'1 2.0
2018-Apr-17 06:00S 29°48' E 031°10'2 3.4
2018-Apr-17 05:30S 29°48' E 031°08'0 0.8
2018-Apr-17 05:00S 29°48' E 031°09'1 1.7
2018-Apr-17 04:30S 29°48' E 031°10'2 3.9
2018-Apr-17 04:00S 29°48' E 031°12'611.4
2018-Apr-17 03:30S 29°47' E 031°18'612.3
2018-Apr-17 03:00S 29°46' E 031°25'612.8
2018-Apr-17 02:30S 29°44' E 031°32'713.7
2018-Apr-17 02:00S 29°42' E 031°40'714.1
2018-Apr-17 01:31S 29°41' E 031°48'714.3
2018-Apr-17 01:00S 29°39' E 031°56'  

Dump ship's entire track history